Metar Cercanos

 

LEPA - Palma De Mallorc, Spain
Distance from station: ONO 38km
Actualización: 13/12/2017 15:30
Few Clouds
Few Clouds
 Viento del OSO
Viento: OSO 26 km/h
Temperatura: 14°C
Rocío: 5°C
Humedad: 55%
Barómetro: 1023 hPa
Clouds: Few Clouds
Visibility: 10 km
Cloud details: Few Clouds 914 m
2017/12/13 14:30 LEPA 131430Z 25014KT 9999 FEW030 14/05 Q1023 NOSIG
LEMH - Mahon/Menorca Is, Spain
Distance from station: ENE 105km
Actualización: 13/12/2017 15:30
Few Clouds
Few Clouds
 Viento del OSO
Viento: OSO 15 km/h
Temperatura: 12°C
Rocío: 5°C
Humedad: 63%
Barómetro: 1023 hPa
Clouds: Few Clouds
Visibility: 10 km
Cloud details: Few Clouds 914 m
2017/12/13 14:30 LEMH 131430Z 25008KT 220V280 9999 FEW030 12/05 Q1023
 
LEIB - Ibiza/Es Codola, Spain
Distance from station: OSO 165km
Actualización: 13/12/2017 15:30
Despejado
Despejado
 Viento del SO
Viento: SO 22 km/h
Temperatura: 15°C
Rocío: 4°C
Humedad: 48%
Barómetro: 1024 hPa
Resumen: Despejado
Visibility: greater than 10 km
2017/12/13 14:30 LEIB 131430Z 23012KT CAVOK 15/04 Q1024 NOSIG
LEBL - Barcelona Airpor, Spain
Distance from station: NNO 225km
Actualización: 13/12/2017 15:30
Few Clouds
Few Clouds
 Viento del SO
Viento: SO 24 km/h
Temperatura: 12°C
Rocío: 2°C
Humedad: 51%
Barómetro: 1021 hPa
Clouds: Few Clouds
Visibility: 10 km
Cloud details: Few Clouds 1524 m
2017/12/13 14:30 LEBL 131430Z 23013KT 9999 FEW050 12/02 Q1021 NOSIG
 
LEVC - Valencia (civ/Mi, Spain
Distance from station: NO 188km
Actualización: 13/12/2017 15:30
Despejado
Despejado
 Viento del SO
Viento: SO 15 km/h
Temperatura: 16°C
Rocío: 0°C
Humedad: 34%
Barómetro: 1022 hPa
Resumen: Despejado
Visibility: greater than 10 km
2017/12/13 14:30 LEVC 131430Z 23008KT CAVOK 16/M00 Q1022 NOSIG
LEGE - Gerona/Costa Bra, Spain
Distance from station: N 276km
Actualización: 13/12/2017 15:30
Few Clouds
Few Clouds
 Viento del calm
Viento: Calma
Temperatura: 10°C
Rocío: -1°C
Humedad: 47%
Barómetro: 1019 hPa
Clouds: Few Clouds
Visibility: 10 km
Cloud details: Few Clouds 1829 m
2017/12/13 14:30 LEGE 131430Z 00000KT 9999 FEW060 10/M01 Q1019
 
LEAL - Alicante/El Alte, Spain
Distance from station: OSO 344km
Actualización: 13/12/2017 15:30
Despejado
Despejado
 Viento del SO
Viento: SO 17 km/h
Temperatura: 16°C
Rocío: -2°C
Humedad: 29%
Barómetro: 1025 hPa
Resumen: Despejado
Visibility: greater than 10 km
2017/12/13 14:30 LEAL 131430Z 22009KT 190V260 CAVOK 16/M02 Q1025 NOSIG
LEAM - Almeria Airport, Spain
Distance from station: SSO 56km
Actualización: 13/12/2017 15:30
Despejado
Despejado
 Viento del SSO
Viento: SSO 13 km/h
Temperatura: 16°C
Rocío: 8°C
Humedad: 59%
Barómetro: 1027 hPa
Resumen: Despejado
Visibility: greater than 10 km
2017/12/13 14:30 LEAM 131430Z 20007KT 170V240 CAVOK 16/08 Q1027
 
LEZG - Zaragoza (mil/Ci, Spain
Distance from station: NO 431km
Actualización: 13/12/2017 15:30
Despejado
Despejado
 Viento del OSO
Viento: OSO 37 km/h
Temperatura: 13°C
Rocío: 4°C
Humedad: 55%
Barómetro: 1021 hPa
Resumen: Despejado
Visibility: greater than 10 km
2017/12/13 14:30 LEZG 131430Z 25020KT CAVOK 13/04 Q1021
LEMD - Madrid/Barajas, Spain
Distance from station: ONO 234km
Actualización: 13/12/2017 15:30
Muy nuboso
Muy nuboso
 Viento del SSO
Viento: SSO 15 km/h, Racha: 35 km/h
Temperatura: 9°C
Sensación frio: 7°C
Rocío: 1°C
Humedad: 58%
Barómetro: 1025 hPa
Clouds: Muy nuboso
Visibility: 10 km
Cloud details: Muy nuboso 1219 m
2017/12/13 14:30 LEMD 131430Z 21008G19KT 130V280 9999 BKN040 09/01 Q1025 NOSIG
 
LEGR - Granada Airport, Spain
Distance from station: OSO 62km
Actualización: 13/12/2017 15:30
Despejado
Despejado
 Viento del varies
Viento: varies 2 km/h
Temperatura: 12°C
Rocío: 0°C
Humedad: 44%
Barómetro: 1027 hPa
Resumen: Despejado
Visibility: greater than 10 km
2017/12/13 14:30 LEGR 131430Z VRB01KT CAVOK 12/M00 Q1027
LEMG - Malaga (civ/Mil), Spain
Distance from station: OSO 227km
Actualización: 13/12/2017 15:30
Few Clouds
Few Clouds
 Viento del SSE
Viento: SSE 9 km/h
Temperatura: 16°C
Rocío: 7°C
Humedad: 55%
Barómetro: 1027 hPa
Clouds: Few Clouds
Visibility: 10 km
Cloud details: Few Clouds 914 m
2017/12/13 14:30 LEMG 131430Z 15005KT 120V190 9999 FEW030 16/07 Q1027 NOSIG
 
LEZL - Sevilla (civ/Mil, Spain
Distance from station: S 318km
Actualización: 13/12/2017 15:30
Despejado
Despejado
 Viento del NE
Viento: NE 4 km/h
Temperatura: 15°C
Rocío: 5°C
Humedad: 51%
Barómetro: 1028 hPa
Resumen: Despejado
Visibility: greater than 10 km
2017/12/13 14:30 LEZL 131430Z 04002KT CAVOK 15/05 Q1028 NOSIG
LEVT - Vitoria, Spain
Distance from station: NO 226km
Actualización: 13/12/2017 15:30
Muy nuboso
Muy nuboso
 Viento del OSO
Viento: OSO 35 km/h
Temperatura: 9°C
Sensación frio: 5°C
Rocío: 4°C
Humedad: 71%
Barómetro: 1020 hPa
Clouds: Muy nuboso
Visibility: 10 km
Cloud details: Parcialmente nuboso 762 m
Muy nuboso 2134 m
2017/12/13 14:30 LEVT 131430Z 24019KT 200V270 9999 SCT025 BKN070 09/04 Q1020
 
LEBB - Bilbao/Sondica, Spain
Distance from station: NNO 235km
Actualización: 13/12/2017 15:30
Few Clouds
Few Clouds
 Viento del SO
Viento: SO 26 km/h, Racha: 44 km/h
Temperatura: 13°C
Rocío: 5°C
Humedad: 59%
Barómetro: 1018 hPa
Clouds: Few Clouds
Visibility: 10 km
Cloud details: Few Clouds 1676 m
2017/12/13 14:30 LEBB 131430Z 23014G24KT 160V280 9999 FEW055 13/05 Q1018 NOSIG
LESO - San Sebastian/Fu, Spain
Distance from station: N 231km
Actualización: 13/12/2017 15:30
Despejado
Despejado
 Viento del S
Viento: S 6 km/h
Temperatura: 13°C
Rocío: 6°C
Humedad: 63%
Barómetro: 1017 hPa
Resumen: Despejado
Visibility: greater than 10 km
2017/12/13 14:30 LESO 131430Z 19003KT 150V260 CAVOK 13/06 Q1017
 
LEVD - Valladolid(Mil/C, Spain
Distance from station: ONO 239km
Actualización: 13/12/2017 15:30
Muy nuboso
Muy nuboso
 Viento del OSO
Viento: OSO 33 km/h
Temperatura: 8°C
Sensación frio: 3°C
Rocío: 6°C
Humedad: 87%
Barómetro: 1023 hPa
Clouds: Muy nuboso
Visibility: 10 km
Cloud details: Parcialmente nuboso 305 m
Muy nuboso 457 m
2017/12/13 14:30 LEVD 131430Z 25018KT 9999 SCT010 BKN015 08/06 Q1023
LESA - Salamanca (civ/M, Spain
Distance from station: ONO 349km
Actualización: 13/12/2017 15:30
Muy nuboso
Muy nuboso
 Viento del O
Viento: O 31 km/h, Racha: 50 km/h
Temperatura: 10°C
Sensación frio: 7°C
Rocío: 6°C
Humedad: 76%
Barómetro: 1025 hPa
Clouds: Muy nuboso
Visibility: 10 km
Cloud details: Muy nuboso 549 m
2017/12/13 14:30 LESA 131430Z 27017G27KT 230V290 9999 BKN018 10/06 Q1025
 
LEXJ - Santander/Paraya, Spain
Distance from station: NNO 247km
Actualización: 13/12/2017 15:30
Muy nuboso
Muy nuboso
 Viento del SSO
Viento: SSO 17 km/h
Temperatura: 15°C
Rocío: 4°C
Humedad: 48%
Barómetro: 1017 hPa
Clouds: Muy nuboso
Visibility: 10 km
Cloud details: Muy nuboso 1615 m
2017/12/13 14:30 LEXJ 131430Z 21009KT 180V240 9999 BKN053 15/04 Q1017
LEAS - Asturias/Aviles, Spain
Distance from station: NO 214km
Actualización: 13/12/2017 15:30
Muy nuboso
Muy nuboso
 Viento del OSO
Viento: OSO 28 km/h
Temperatura: 16°C
Rocío: 9°C
Humedad: 63%
Barómetro: 1017 hPa
Clouds: Muy nuboso
Visibility: 10 km
Cloud details: Muy nuboso 1219 m
2017/12/13 14:30 LEAS 131430Z 24015KT 200V270 9999 BKN040 16/09 Q1017 NOSIG
 
LECO - La Coruna/Alvedr, Spain
Distance from station: ONO 222km
Actualización: 13/12/2017 15:50
Drizzle, Mist, Cubierto
Drizzle, Mist, Cubierto
 Viento del SO
Viento: SO 19 km/h
Temperatura: 14°C
Rocío: 12°C
Humedad: 88%
Barómetro: 1021 hPa
Resumen: Drizzle, Mist
Clouds: Cubierto
Visibility: 5 km
Cloud details: Parcialmente nuboso 366 m
Muy nuboso 549 m
Cubierto 914 m
2017/12/13 14:50 LECO 131450Z 22010KT 190V250 4500 DZ BR SCT012 BKN018 OVC030 14/12 Q1021 TEMPO 6000 NSW
LEVX - Vigo/Peinador, Spain
Distance from station: O 214km
Actualización: 13/12/2017 15:30
Lluvia débil, Niebla, Cubierto
Lluvia débil, Niebla, Cubierto
 Viento del S
Viento: S 13 km/h
Temperatura: 11°C
Rocío: 10°C
Humedad: 94%
Barómetro: 1024 hPa
Resumen: Lluvia débil, Niebla
Clouds: Cubierto
Visibility: 0 km
Cloud details: Cubierto 30 m
2017/12/13 14:30 LEVX 131430Z 18007KT 150V230 0300 R19/1700D R01/0700D -RA FG VV001 11/10 Q1024 TEMPO 0800 BCFG